Time;durP1;ratioP1;P1;durP2;ratioP2;P2;SDS_P1;SDS_P2;PMS_P1;PMS_P2;Temp;Humidity;BMP_temperature;BMP_pressure;BME280_temperature;BME280_humidity;BME280_pressure;Samples;Min_cycle;Max_cycle;Signal;HPM_P1;HPM_P2
2024/04/15 00:01:30;;;;;;;139.57;127.77;;;;;16.60;96703.00;;;;5407367;26;20238;-83
2024/04/15 00:04:21;;;;;;;146.77;134.20;;;;;16.90;96696.00;;;;5410502;26;20279;-84
2024/04/15 00:07:09;;;;;;;151.07;137.10;;;;;16.80;96694.00;;;;5407821;26;20235;-83
2024/04/15 00:10:00;;;;;;;160.00;145.00;;;;;17.00;96692.00;;;;5410519;26;20239;-83
2024/04/15 00:12:52;;;;;;;146.90;134.17;;;;;17.00;96690.00;;;;5419329;26;20879;-83
2024/04/15 00:15:45;;;;;;;150.10;136.53;;;;;16.50;96692.00;;;;5469980;21;20271;-68
2024/04/15 00:18:33;;;;;;;153.13;139.40;;;;;16.90;96689.00;;;;5442093;26;20305;-68
2024/04/15 00:21:24;;;;;;;156.03;140.97;;;;;17.20;96695.00;;;;5433323;26;20730;-68
2024/04/15 00:24:15;;;;;;;178.97;156.10;;;;;16.90;96686.00;;;;5437096;26;20224;-70
2024/04/15 00:27:04;;;;;;;215.83;170.63;;;;;16.80;96684.00;;;;5422688;26;20593;-70
2024/04/15 00:29:57;;;;;;;231.20;174.10;;;;;16.30;96682.00;;;;5417230;26;20276;-70
2024/04/15 00:32:45;;;;;;;173.43;153.03;;;;;16.10;96672.00;;;;5424761;26;20283;-70
2024/04/15 00:35:36;;;;;;;279.67;163.33;;;;;16.40;96674.00;;;;5425209;26;20222;-70
2024/04/15 00:38:24;;;;;;;283.20;178.10;;;;;16.10;96658.00;;;;5424891;26;20237;-70
2024/04/15 00:41:15;;;;;;;118.63;109.60;;;;;15.80;96659.00;;;;5429210;26;20260;-70
2024/04/15 00:44:04;;;;;;;126.03;115.40;;;;;15.50;96658.00;;;;5417943;26;20626;-70
2024/04/15 00:46:57;;;;;;;147.23;133.73;;;;;15.90;96653.00;;;;5433054;26;20276;-70
2024/04/15 00:49:45;;;;;;;138.53;126.43;;;;;16.00;96645.00;;;;5421119;26;20301;-70
2024/04/15 00:52:36;;;;;;;128.13;117.87;;;;;16.20;96657.00;;;;5420569;26;20229;-71
2024/04/15 00:55:25;;;;;;;123.43;113.93;;;;;16.10;96645.00;;;;5425813;26;20915;-70
2024/04/15 00:58:17;;;;;;;124.20;114.77;;;;;16.10;96642.00;;;;5432395;26;20233;-70
2024/04/15 01:01:05;;;;;;;123.27;113.47;;;;;16.10;96641.00;;;;5421982;26;20305;-70
2024/04/15 01:03:59;;;;;;;136.60;124.70;;;;;16.10;96633.00;;;;5415521;26;20312;-70
2024/04/15 01:06:48;;;;;;;251.33;168.40;;;;;16.50;96630.00;;;;5423437;26;20233;-70
2024/04/15 01:09:39;;;;;;;162.90;142.07;;;;;16.20;96622.00;;;;5428668;26;20694;-70
2024/04/15 01:12:27;;;;;;;95.73;89.50;;;;;15.80;96622.00;;;;5409597;26;20309;-70
2024/04/15 01:15:18;;;;;;;82.03;76.97;;;;;16.00;96602.00;;;;5430927;26;20232;-70
2024/04/15 01:18:06;;;;;;;73.87;69.10;;;;;15.80;96606.00;;;;5429236;26;20284;-70
2024/04/15 01:21:01;;;;;;;65.63;61.80;;;;;15.20;96607.00;;;;5416084;26;20300;-70
2024/04/15 01:23:51;;;;;;;70.67;66.77;;;;;15.50;96606.00;;;;5420555;26;20237;-69
2024/04/15 01:26:48;;;;;;;61.17;57.57;;;;;15.80;96610.00;;;;5432598;26;20304;-69
2024/04/15 01:29:37;;;;;;;52.27;49.13;;;;;16.10;96601.00;;;;5427542;26;20288;-69
2024/04/15 01:32:27;;;;;;;51.50;48.60;;;;;16.50;96597.00;;;;5425920;26;20578;-70
2024/04/15 01:35:19;;;;;;;53.17;50.07;;;;;16.70;96596.00;;;;5429472;26;20292;-69
2024/04/15 01:38:10;;;;;;;32.90;30.13;;;;;16.10;96594.00;;;;5409768;26;20272;-70
2024/04/15 01:41:01;;;;;;;37.57;35.30;;;;;15.50;96591.00;;;;5415670;26;20826;-70
2024/04/15 01:43:52;;;;;;;37.83;36.20;;;;;16.20;96572.00;;;;5424448;26;20226;-70
2024/04/15 01:46:40;;;;;;;43.13;40.37;;;;;16.30;96580.00;;;;5427350;26;20304;-70
2024/04/15 01:49:31;;;;;;;59.80;56.53;;;;;16.50;96570.00;;;;5421821;26;20312;-70
2024/04/15 01:52:19;;;;;;;53.67;50.67;;;;;15.80;96562.00;;;;5422647;26;20386;-69
2024/04/15 01:55:10;;;;;;;67.00;62.70;;;;;16.00;96559.00;;;;5421747;26;20283;-69
2024/04/15 01:58:04;;;;;;;49.30;46.20;;;;;15.30;96558.00;;;;5415057;26;20228;-70
2024/04/15 02:00:52;;;;;;;58.20;54.63;;;;;15.70;96558.00;;;;5424385;26;20234;-70
2024/04/15 02:03:44;;;;;;;70.60;66.33;;;;;16.00;96555.00;;;;5420198;26;20310;-69
2024/04/15 02:06:32;;;;;;;63.83;59.77;;;;;15.70;96557.00;;;;5429782;26;20291;-69
2024/04/15 02:09:23;;;;;;;61.07;57.27;;;;;15.60;96553.00;;;;5430695;26;20283;-69
2024/04/15 02:12:11;;;;;;;93.30;85.90;;;;;15.20;96543.00;;;;5424382;26;20229;-69
2024/04/15 02:15:05;;;;;;;99.43;92.17;;;;;14.50;96547.00;;;;5422730;26;20320;-69
2024/04/15 02:17:53;;;;;;;53.27;50.40;;;;;15.20;96539.00;;;;5430530;26;20283;-69
2024/04/15 02:20:45;;;;;;;68.80;64.70;;;;;15.70;96537.00;;;;5437739;26;20229;-69
2024/04/15 02:23:33;;;;;;;73.97;69.23;;;;;15.70;96543.00;;;;5409148;26;20632;-69
2024/04/15 02:26:24;;;;;;;68.83;64.57;;;;;15.70;96536.00;;;;5415893;26;20299;-69
2024/04/15 02:29:12;;;;;;;83.17;77.30;;;;;15.80;96541.00;;;;5424605;26;20234;-69
2024/04/15 02:32:06;;;;;;;83.27;77.37;;;;;15.60;96525.00;;;;5420852;26;20710;-69
2024/04/15 02:34:54;;;;;;;81.87;76.73;;;;;15.80;96532.00;;;;5422840;26;20360;-69
2024/04/15 02:37:45;;;;;;;85.50;79.27;;;;;15.70;96533.00;;;;5421166;26;20226;-69
2024/04/15 02:40:36;;;;;;;70.63;65.83;;;;;15.80;96521.00;;;;5424677;26;20313;-69
2024/04/15 02:43:24;;;;;;;71.03;66.90;;;;;16.00;96512.00;;;;5415407;26;20297;-69
2024/04/15 02:46:16;;;;;;;76.43;70.93;;;;;15.40;96512.00;;;;5421746;26;20734;-70
2024/04/15 02:49:07;;;;;;;60.93;56.63;;;;;15.20;96503.00;;;;5417407;26;20734;-69
2024/04/15 02:51:59;;;;;;;41.77;39.37;;;;;14.90;96494.00;;;;5423997;26;20238;-70
2024/04/15 02:54:47;;;;;;;50.60;47.83;;;;;15.20;96492.00;;;;5415201;26;20226;-69
2024/04/15 02:57:38;;;;;;;60.87;56.67;;;;;15.30;96491.00;;;;5423954;26;20234;-69
2024/04/15 03:00:26;;;;;;;50.83;47.90;;;;;15.40;96479.00;;;;5417652;26;20234;-70
2024/04/15 03:03:17;;;;;;;55.17;52.00;;;;;15.50;96479.00;;;;5425780;26;20288;-69
2024/04/15 03:06:08;;;;;;;53.13;49.67;;;;;15.20;96467.00;;;;5424516;26;20267;-70
2024/04/15 03:08:59;;;;;;;47.53;44.70;;;;;15.40;96464.00;;;;5418017;26;20293;-69
2024/04/15 03:11:47;;;;;;;56.90;52.90;;;;;14.70;96449.00;;;;5434735;26;20229;-69
2024/04/15 03:14:38;;;;;;;72.40;67.70;;;;;14.60;96456.00;;;;5428499;26;20237;-70
2024/04/15 03:17:29;;;;;;;69.63;64.53;;;;;14.70;96456.00;;;;5410029;26;20290;-69
2024/04/15 03:20:20;;;;;;;41.50;39.03;;;;;14.40;96447.00;;;;5426347;26;20605;-70
2024/04/15 03:23:11;;;;;;;59.57;55.37;;;;;15.00;96463.00;;;;5430661;26;20234;-70
2024/04/15 03:26:02;;;;;;;57.17;53.77;;;;;15.60;96451.00;;;;5429725;26;20279;-70
2024/04/15 03:28:50;;;;;;;50.97;48.20;;;;;15.40;96454.00;;;;5426963;26;20686;-69
2024/04/15 03:31:41;;;;;;;46.77;43.93;;;;;15.40;96450.00;;;;5443539;26;20654;-69
2024/04/15 03:34:29;;;;;;;50.27;47.10;;;;;15.40;96446.00;;;;5441538;26;20296;-69
2024/04/15 03:37:20;;;;;;;41.13;37.60;;;;;15.50;96442.00;;;;5445624;26;20495;-69
2024/04/15 03:40:14;;;;;;;46.30;42.80;;;;;15.60;96442.00;;;;5419157;26;20260;-69
2024/04/15 03:43:05;;;;;;;54.47;50.53;;;;;15.50;96440.00;;;;5436660;26;20288;-69
2024/04/15 03:45:54;;;;;;;56.03;52.57;;;;;15.10;96436.00;;;;5426056;26;20232;-69
2024/04/15 03:48:45;;;;;;;56.27;52.80;;;;;14.80;96439.00;;;;5437553;26;20328;-69
2024/04/15 03:51:33;;;;;;;86.30;80.20;;;;;14.80;96422.00;;;;5425190;26;20296;-70
2024/04/15 03:54:24;;;;;;;207.17;151.63;;;;;15.10;96417.00;;;;5426460;26;20579;-69
2024/04/15 03:57:15;;;;;;;145.63;128.60;;;;;14.70;96410.00;;;;5417940;26;20280;-70
2024/04/15 04:00:06;;;;;;;88.73;81.73;;;;;15.10;96409.00;;;;5428952;26;20226;-70
2024/04/15 04:02:54;;;;;;;103.27;95.07;;;;;15.20;96408.00;;;;5426299;26;20275;-70
2024/04/15 04:05:45;;;;;;;94.70;87.87;;;;;15.00;96410.00;;;;5436434;26;20296;-69
2024/04/15 04:08:34;;;;;;;96.03;88.63;;;;;15.40;96400.00;;;;5428796;26;20295;-69
2024/04/15 04:11:24;;;;;;;87.77;81.63;;;;;14.70;96400.00;;;;5442109;26;20230;-69
2024/04/15 04:14:15;;;;;;;91.13;83.93;;;;;14.10;96393.00;;;;5435181;26;20275;-69
2024/04/15 04:17:06;;;;;;;96.63;88.93;;;;;14.20;96397.00;;;;5421168;26;20278;-69
2024/04/15 04:19:54;;;;;;;66.35;62.15;;;;;14.30;96391.00;;;;5423786;26;20301;-69
2024/04/15 04:22:45;;;;;;;86.67;80.30;;;;;14.80;96392.00;;;;5428853;26;20531;-69
2024/04/15 04:25:34;;;;;;;93.67;86.37;;;;;14.70;96390.00;;;;5430384;26;20275;-69
2024/04/15 04:28:24;;;;;;;150.87;130.37;;;;;14.60;96398.00;;;;5419949;26;20596;-69
2024/04/15 04:31:17;;;;;;;175.40;128.47;;;;;14.70;96382.00;;;;5424819;26;20525;-69
2024/04/15 04:34:08;;;;;;;127.47;113.93;;;;;14.70;96387.00;;;;5423671;26;20805;-69
2024/04/15 04:36:57;;;;;;;124.40;112.70;;;;;15.20;96377.00;;;;5423963;26;20221;-69
2024/04/15 04:39:48;;;;;;;157.43;127.50;;;;;15.10;96381.00;;;;5420595;26;20234;-69
2024/04/15 04:42:36;;;;;;;245.30;142.27;;;;;15.20;96374.00;;;;5425720;26;20636;-69
2024/04/15 04:45:28;;;;;;;111.80;102.17;;;;;15.00;96371.00;;;;5422642;26;20278;-69
2024/04/15 04:48:21;;;;;;;76.20;70.60;;;;;15.10;96364.00;;;;5419633;26;20298;-69
2024/04/15 04:51:10;;;;;;;58.37;54.30;;;;;14.80;96359.00;;;;5424518;26;20284;-69
2024/04/15 04:54:01;;;;;;;47.23;44.57;;;;;14.80;96357.00;;;;5431018;26;20476;-69
2024/04/15 04:56:52;;;;;;;48.60;45.53;;;;;15.10;96354.00;;;;5435069;26;20281;-69
2024/04/15 04:59:40;;;;;;;55.53;52.13;;;;;14.90;96353.00;;;;5441085;26;20240;-69
2024/04/15 05:02:31;;;;;;;42.53;40.13;;;;;14.80;96348.00;;;;5435512;26;20225;-70
2024/04/15 05:05:22;;;;;;;52.87;49.80;;;;;14.50;96344.00;;;;5427673;26;20307;-69
2024/04/15 05:08:13;;;;;;;52.13;47.70;;;;;14.60;96342.00;;;;5425344;26;20226;-69
2024/04/15 05:11:04;;;;;;;43.33;39.67;;;;;14.30;96329.00;;;;5425886;26;20300;-70
2024/04/15 05:13:52;;;;;;;62.00;57.40;;;;;14.60;96326.00;;;;5414618;26;20279;-69
2024/04/15 05:16:43;;;;;;;64.23;60.17;;;;;15.20;96320.00;;;;5419400;26;20283;-70
2024/04/15 05:19:31;;;;;;;85.50;78.60;;;;;15.60;96314.00;;;;5434606;26;20282;-69
2024/04/15 05:22:25;;;;;;;59.27;55.50;;;;;15.40;96306.00;;;;5427084;26;20295;-69
2024/04/15 05:25:14;;;;;;;90.63;83.53;;;;;15.30;96310.00;;;;5421335;26;20237;-69
2024/04/15 05:28:05;;;;;;;58.00;53.27;;;;;15.40;96329.00;;;;5418812;26;20321;-69
2024/04/15 05:30:55;;;;;;;86.33;80.47;;;;;16.10;96318.00;;;;5429506;26;20288;-69
2024/04/15 05:33:46;;;;;;;62.53;58.87;;;;;16.30;96323.00;;;;5428580;26;20300;-70
2024/04/15 05:36:34;;;;;;;59.33;55.83;;;;;15.80;96307.00;;;;5426789;26;20354;-69
2024/04/15 05:39:28;;;;;;;50.00;46.27;;;;;15.80;96307.00;;;;5432426;26;20226;-69
2024/04/15 05:42:16;;;;;;;49.63;46.03;;;;;16.00;96300.00;;;;5417227;26;20367;-70
2024/04/15 05:45:09;;;;;;;42.87;40.23;;;;;16.20;96307.00;;;;5423322;26;20229;-69
2024/04/15 05:47:58;;;;;;;29.10;27.17;;;;;16.20;96311.00;;;;5418550;26;20314;-69
2024/04/15 05:50:49;;;;;;;30.13;28.13;;;;;16.30;96303.00;;;;5427102;26;20242;-69
2024/04/15 05:53:37;;;;;;;27.77;25.73;;;;;16.10;96275.00;;;;5428675;26;20291;-70
2024/04/15 05:56:30;;;;;;;34.00;31.97;;;;;16.30;96293.00;;;;5416992;26;20301;-70
2024/04/15 05:59:19;;;;;;;44.30;41.70;;;;;16.80;96299.00;;;;5423114;26;20784;-70
2024/04/15 06:02:10;;;;;;;34.67;31.30;;;;;16.70;96292.00;;;;5423853;26;20282;-69
2024/04/15 06:04:58;;;;;;;28.27;26.40;;;;;16.80;96292.00;;;;5423059;26;20626;-69
2024/04/15 06:07:49;;;;;;;32.93;29.97;;;;;16.90;96286.00;;;;5436111;26;20250;-70
2024/04/15 06:10:40;;;;;;;42.67;39.60;;;;;16.80;96276.00;;;;5435271;26;20283;-69
2024/04/15 06:13:33;;;;;;;57.83;54.23;;;;;16.70;96280.00;;;;5420090;26;20276;-69
2024/04/15 06:16:21;;;;;;;50.63;47.87;;;;;16.40;96278.00;;;;5421394;26;20637;-69
2024/04/15 06:19:12;;;;;;;49.10;46.10;;;;;16.70;96273.00;;;;5424879;26;20768;-70
2024/04/15 06:22:01;;;;;;;54.50;50.73;;;;;16.70;96280.00;;;;5423590;26;20232;-70
2024/04/15 06:24:52;;;;;;;78.17;73.87;;;;;16.40;96275.00;;;;5417324;26;20339;-69
2024/04/15 06:27:40;;;;;;;63.03;58.93;;;;;16.40;96274.00;;;;5414656;26;20380;-69
2024/04/15 06:30:33;;;;;;;50.60;47.87;;;;;16.70;96273.00;;;;5409315;26;20230;-70
2024/04/15 06:33:21;;;;;;;73.10;68.10;;;;;17.30;96270.00;;;;5419745;26;20289;-70
2024/04/15 06:36:12;;;;;;;39.60;37.07;;;;;17.40;96264.00;;;;5440516;26;20288;-70
2024/04/15 06:39:01;;;;;;;40.47;37.70;;;;;17.60;96269.00;;;;5419032;26;20238;-70
2024/04/15 06:41:52;;;;;;;50.80;47.60;;;;;17.80;96266.00;;;;5429779;26;20299;-70
2024/04/15 06:44:40;;;;;;;93.30;87.63;;;;;17.90;96266.00;;;;5430796;26;20232;-70
2024/04/15 06:47:34;;;;;;;111.67;104.70;;;;;17.60;96278.00;;;;5428054;26;20655;-70
2024/04/15 06:50:22;;;;;;;117.97;110.37;;;;;17.60;96267.00;;;;5430069;26;20233;-70
2024/04/15 06:53:13;;;;;;;97.97;90.83;;;;;17.60;96273.00;;;;5426514;26;20603;-70
2024/04/15 06:56:01;;;;;;;96.60;91.27;;;;;18.10;96265.00;;;;5436952;26;20283;-69
2024/04/15 06:58:52;;;;;;;90.97;85.70;;;;;18.50;96252.00;;;;5438890;26;20302;-69
2024/04/15 07:01:40;;;;;;;119.73;112.13;;;;;18.60;96242.00;;;;5441859;26;20229;-69
2024/04/15 07:04:34;;;;;;;132.80;124.13;;;;;18.60;96237.00;;;;5414700;26;20234;-69
2024/04/15 07:07:22;;;;;;;186.07;169.03;;;;;18.90;96248.00;;;;5435131;26;20288;-69
2024/04/15 07:10:13;;;;;;;182.57;168.13;;;;;18.90;96243.00;;;;5424521;26;20809;-70
2024/04/15 07:13:02;;;;;;;169.30;157.30;;;;;19.10;96246.00;;;;5413678;26;20284;-69
2024/04/15 07:15:53;;;;;;;167.07;155.53;;;;;19.20;96245.00;;;;5427651;26;20246;-70
2024/04/15 07:18:41;;;;;;;170.73;158.77;;;;;19.10;96242.00;;;;5411009;26;20297;-69
2024/04/15 07:21:35;;;;;;;203.50;187.43;;;;;19.50;96233.00;;;;5427333;26;20647;-69
2024/04/15 07:24:23;;;;;;;204.13;187.57;;;;;20.30;96243.00;;;;5441850;26;20232;-70
2024/04/15 07:27:14;;;;;;;224.73;205.53;;;;;20.20;96236.00;;;;5423459;26;20877;-69
2024/04/15 07:30:03;;;;;;;247.80;224.40;;;;;20.20;96222.00;;;;5423862;26;20234;-69
2024/04/15 07:32:54;;;;;;;255.17;230.13;;;;;20.90;96230.00;;;;5421883;26;20228;-70
2024/04/15 07:35:42;;;;;;;173.67;163.50;;;;;21.20;96221.00;;;;5418320;26;20716;-70
2024/04/15 07:38:36;;;;;;;137.93;130.80;;;;;21.40;96216.00;;;;5424308;26;20296;-70
2024/04/15 07:41:24;;;;;;;103.27;98.70;;;;;20.80;96219.00;;;;5426353;26;20293;-69
2024/04/15 07:44:15;;;;;;;138.63;130.90;;;;;20.70;96216.00;;;;5421839;26;20276;-70
2024/04/15 07:47:06;;;;;;;119.07;113.27;;;;;20.90;96220.00;;;;5432037;26;20233;-70
2024/04/15 07:49:54;;;;;;;118.37;112.73;;;;;21.20;96223.00;;;;5439907;26;20284;-69
2024/04/15 07:52:45;;;;;;;67.90;64.63;;;;;21.60;96223.00;;;;5436009;26;20581;-70
2024/04/15 07:55:36;;;;;;;112.83;107.17;;;;;22.30;96228.00;;;;5434713;26;20293;-70
2024/04/15 07:58:30;;;;;;;136.40;129.83;;;;;22.50;96230.00;;;;5425005;26;20225;-70
2024/04/15 08:01:19;;;;;;;104.10;99.13;;;;;22.90;96220.00;;;;5419240;26;20230;-70
2024/04/15 08:04:10;;;;;;;116.13;110.80;;;;;23.00;96227.00;;;;5421672;26;20249;-70
2024/04/15 08:06:58;;;;;;;157.50;150.27;;;;;23.10;96227.00;;;;5435179;26;20278;-70
2024/04/15 08:09:49;;;;;;;134.70;128.87;;;;;23.40;96228.00;;;;5429677;26;20227;-70
2024/04/15 08:12:43;;;;;;;86.23;82.23;;;;;23.50;96230.00;;;;5425432;26;20708;-70
2024/04/15 08:15:33;;;;;;;78.97;75.00;;;;;23.80;96231.00;;;;5420878;26;20288;-70
2024/04/15 08:18:23;;;;;;;97.73;93.57;;;;;24.00;96222.00;;;;5418970;26;20229;-70
2024/04/15 08:21:12;;;;;;;236.87;224.60;;;;;24.20;96223.00;;;;5419064;26;20226;-71
2024/04/15 08:24:03;;;;;;;126.67;121.57;;;;;24.20;96235.00;;;;5422269;26;20722;-70
2024/04/15 08:26:51;;;;;;;182.87;174.40;;;;;24.40;96237.00;;;;5428534;26;20230;-70
2024/04/15 08:29:44;;;;;;;269.57;256.20;;;;;24.70;96229.00;;;;5423145;26;20306;-70
2024/04/15 08:32:33;;;;;;;249.40;237.67;;;;;24.60;96228.00;;;;5425529;26;20635;-70
2024/04/15 08:35:24;;;;;;;278.67;264.70;;;;;24.90;96217.00;;;;5430406;26;20234;-70
2024/04/15 08:38:15;;;;;;;226.63;215.70;;;;;24.90;96219.00;;;;5420515;26;20302;-70
2024/04/15 08:41:04;;;;;;;178.53;170.77;;;;;24.90;96218.00;;;;5414178;26;20896;-70
2024/04/15 08:43:58;;;;;;;231.63;221.03;;;;;24.80;96211.00;;;;5430680;26;20233;-71
2024/04/15 08:46:49;;;;;;;263.77;251.87;;;;;24.90;96214.00;;;;5433013;26;20296;-70
2024/04/15 08:49:40;;;;;;;256.33;244.90;;;;;25.10;96218.00;;;;5426218;26;20353;-70
2024/04/15 08:52:29;;;;;;;248.83;237.97;;;;;25.40;96228.00;;;;5417563;26;20313;-71
2024/04/15 08:55:20;;;;;;;198.67;190.40;;;;;25.70;96219.00;;;;5415697;26;20268;-70
2024/04/15 08:58:10;;;;;;;253.80;242.20;;;;;25.90;96220.00;;;;5421293;26;20307;-70
2024/04/15 09:01:02;;;;;;;241.03;230.70;;;;;26.20;96216.00;;;;5417520;26;20305;-70
2024/04/15 09:03:53;;;;;;;337.60;320.90;;;;;26.20;96228.00;;;;5431959;26;20296;-70
2024/04/15 09:06:44;;;;;;;324.97;309.37;;;;;26.40;96222.00;;;;5423273;26;20230;-70
2024/04/15 09:09:32;;;;;;;389.37;368.03;;;;;26.40;96216.00;;;;5424952;26;20293;-70
2024/04/15 09:12:23;;;;;;;412.77;389.77;;;;;26.70;96216.00;;;;5419961;26;20292;-70
2024/04/15 09:15:13;;;;;;;437.40;411.10;;;;;26.60;96213.00;;;;5426621;26;20275;-70
2024/04/15 09:18:05;;;;;;;455.17;427.57;;;;;27.10;96198.00;;;;5426891;26;20287;-70
2024/04/15 09:20:56;;;;;;;446.40;419.53;;;;;27.40;96201.00;;;;5415729;26;20297;-71
2024/04/15 09:23:47;;;;;;;460.20;432.70;;;;;27.60;96198.00;;;;5422208;26;20339;-71
2024/04/15 09:26:35;;;;;;;470.13;441.40;;;;;28.10;96191.00;;;;5433383;26;20279;-71
2024/04/15 09:29:28;;;;;;;510.87;475.67;;;;;28.20;96182.00;;;;5416293;26;20310;-71
2024/04/15 09:32:16;;;;;;;527.60;490.10;;;;;28.50;96187.00;;;;5418086;26;20227;-71
2024/04/15 09:35:08;;;;;;;532.33;492.37;;;;;28.30;96183.00;;;;5413170;26;20305;-71
2024/04/15 09:38:00;;;;;;;534.27;496.17;;;;;28.70;96182.00;;;;5429856;26;20767;-71
2024/04/15 09:40:51;;;;;;;543.73;502.93;;;;;28.70;96167.00;;;;5423289;26;20300;-71
2024/04/15 09:43:40;;;;;;;548.73;504.70;;;;;28.60;96163.00;;;;5429850;26;20294;-71
2024/04/15 09:46:33;;;;;;;554.57;508.20;;;;;29.20;96168.00;;;;5415355;26;20271;-71
2024/04/15 09:49:21;;;;;;;561.10;512.37;;;;;29.20;96167.00;;;;5413285;26;20632;-71
2024/04/15 09:52:22;;;;;;;568.60;517.93;;;;;29.20;96154.00;;;;5418612;26;20232;-71
2024/04/15 09:55:21;;;;;;;579.77;528.23;;;;;29.60;96148.00;;;;5421114;26;20276;-71
2024/04/15 09:58:12;;;;;;;580.27;529.97;;;;;29.70;96141.00;;;;5415606;26;20309;-71
2024/04/15 10:01:02;;;;;;;584.87;534.63;;;;;29.60;96142.00;;;;5422699;26;20777;-71
2024/04/15 10:03:55;;;;;;;591.20;541.93;;;;;29.50;96142.00;;;;5412596;26;20372;-71
2024/04/15 10:06:47;;;;;;;600.70;548.63;;;;;29.10;96136.00;;;;5418058;26;20297;-71
2024/04/15 10:09:38;;;;;;;596.37;544.60;;;;;29.60;96139.00;;;;5406536;26;20242;-72
2024/04/15 10:12:29;;;;;;;603.13;551.17;;;;;28.60;96132.00;;;;5395995;26;20292;-71
2024/04/15 10:15:21;;;;;;;597.57;546.93;;;;;29.40;96135.00;;;;5397875;26;21558;-72
2024/04/15 10:18:10;;;;;;;592.87;543.07;;;;;29.90;96134.00;;;;5411023;26;20234;-72
2024/04/15 10:21:01;;;;;;;603.20;554.90;;;;;30.40;96124.00;;;;5414056;26;20277;-72
2024/04/15 10:23:50;;;;;;;602.60;555.20;;;;;30.10;96127.00;;;;5408256;26;20238;-72
2024/04/15 10:26:41;;;;;;;608.90;558.10;;;;;30.20;96114.00;;;;5411138;26;20828;-72
2024/04/15 10:29:32;;;;;;;611.67;561.40;;;;;30.30;96123.00;;;;5405088;26;20299;-72
2024/04/15 10:32:27;;;;;;;616.03;567.87;;;;;30.40;96115.00;;;;5402707;26;20308;-72
2024/04/15 10:35:21;;;;;;;631.90;586.80;;;;;30.70;96110.00;;;;5405952;26;20275;-72
2024/04/15 10:38:13;;;;;;;623.30;574.23;;;;;30.80;96114.00;;;;5408657;26;20249;-72
2024/04/15 10:41:07;;;;;;;623.37;577.70;;;;;31.00;96100.00;;;;5406211;26;20390;-72
2024/04/15 10:43:58;;;;;;;630.27;583.93;;;;;30.80;96110.00;;;;5404787;26;20240;-72
2024/04/15 10:46:49;;;;;;;638.03;590.83;;;;;30.00;96110.00;;;;5406828;26;20307;-72
2024/04/15 10:49:40;;;;;;;629.83;580.53;;;;;30.50;96113.00;;;;5410300;26;20681;-72
2024/04/15 10:52:31;;;;;;;630.43;579.90;;;;;30.30;96112.00;;;;5406938;26;20277;-72
2024/04/15 10:55:20;;;;;;;629.37;580.80;;;;;30.70;96116.00;;;;5408501;26;20268;-72
2024/04/15 10:58:12;;;;;;;629.37;578.90;;;;;30.90;96105.00;;;;5408313;26;20244;-72
2024/04/15 11:01:00;;;;;;;630.87;581.50;;;;;31.00;96108.00;;;;5410837;26;20804;-72
2024/04/15 11:03:54;;;;;;;637.67;588.70;;;;;30.90;96110.00;;;;5405284;26;20334;-72
2024/04/15 11:06:43;;;;;;;638.87;589.47;;;;;30.80;96098.00;;;;5406517;26;20243;-72
2024/04/15 11:09:34;;;;;;;649.57;598.47;;;;;30.40;96083.00;;;;5411285;26;20317;-72
2024/04/15 11:12:22;;;;;;;647.73;595.67;;;;;30.80;96086.00;;;;5410337;26;20656;-72
2024/04/15 11:15:15;;;;;;;645.57;593.20;;;;;31.00;96070.00;;;;5416166;26;20290;-72
2024/04/15 11:18:04;;;;;;;646.50;594.20;;;;;31.20;96077.00;;;;5404546;26;20362;-72
2024/04/15 11:21:04;;;;;;;645.73;593.37;;;;;31.40;96077.00;;;;5410748;26;20295;-72
2024/04/15 11:23:52;;;;;;;646.00;593.77;;;;;31.40;96078.00;;;;5409469;26;20235;-72
2024/04/15 11:26:44;;;;;;;652.83;600.03;;;;;31.10;96070.00;;;;5410986;26;20291;-72
2024/04/15 11:29:33;;;;;;;656.30;603.57;;;;;31.10;96068.00;;;;5410571;26;20342;-72
2024/04/15 11:32:25;;;;;;;653.87;601.53;;;;;31.10;96066.00;;;;5410335;26;20285;-72
2024/04/15 11:35:14;;;;;;;658.20;605.00;;;;;30.20;96062.00;;;;5412855;26;20230;-72
2024/04/15 11:38:07;;;;;;;653.13;600.87;;;;;29.90;96059.00;;;;5410693;26;20234;-72
2024/04/15 11:40:55;;;;;;;645.53;593.13;;;;;30.40;96059.00;;;;5408100;26;20286;-73
2024/04/15 11:43:46;;;;;;;652.17;599.43;;;;;30.70;96055.00;;;;5408610;26;20294;-73
2024/04/15 11:46:39;;;;;;;636.03;584.23;;;;;30.60;96051.00;;;;5413500;26;20291;-72
2024/04/15 11:49:30;;;;;;;642.57;589.70;;;;;30.00;96050.00;;;;5410321;26;20352;-72
2024/04/15 11:52:18;;;;;;;631.73;579.83;;;;;29.70;96034.00;;;;5410041;26;20284;-72
2024/04/15 11:55:19;;;;;;;635.47;582.53;;;;;29.90;96028.00;;;;5410079;26;20323;-72
2024/04/15 11:58:11;;;;;;;620.90;568.33;;;;;29.80;96015.00;;;;5414588;26;20709;-72
2024/04/15 12:01:00;;;;;;;616.47;564.80;;;;;29.40;96022.00;;;;5411774;26;20301;-72
2024/04/15 12:03:51;;;;;;;612.27;560.27;;;;;28.50;96007.00;;;;5411018;26;20295;-72
2024/04/15 12:06:43;;;;;;;601.50;550.53;;;;;29.00;96010.00;;;;5427152;26;20232;-71
2024/04/15 12:09:34;;;;;;;602.80;550.93;;;;;29.30;96004.00;;;;5426626;26;20313;-71
2024/04/15 12:12:25;;;;;;;599.27;547.53;;;;;28.80;95998.00;;;;5427277;26;20227;-71
2024/04/15 12:15:17;;;;;;;595.10;543.67;;;;;29.10;95994.00;;;;5426002;26;20305;-71
2024/04/15 12:18:05;;;;;;;585.50;534.73;;;;;28.40;95988.00;;;;5423741;26;20286;-72
2024/04/15 12:20:56;;;;;;;584.87;534.03;;;;;28.30;95984.00;;;;5425334;26;20295;-72
2024/04/15 12:23:45;;;;;;;578.93;528.27;;;;;28.00;95980.00;;;;5418189;26;20298;-71
2024/04/15 12:26:35;;;;;;;576.07;525.77;;;;;28.50;95973.00;;;;5421854;26;20276;-72
2024/04/15 12:29:26;;;;;;;574.63;523.93;;;;;29.00;95958.00;;;;5421064;26;20618;-71
2024/04/15 12:32:17;;;;;;;573.93;523.27;;;;;29.40;95961.00;;;;5421689;26;20275;-71
2024/04/15 12:35:06;;;;;;;566.97;516.33;;;;;29.40;95963.00;;;;5425066;26;20661;-71
2024/04/15 12:37:57;;;;;;;568.70;518.57;;;;;29.40;95947.00;;;;5418465;26;20308;-71
2024/04/15 12:40:48;;;;;;;566.47;516.37;;;;;29.60;95937.00;;;;5425439;26;20719;-71
2024/04/15 12:43:36;;;;;;;571.83;522.10;;;;;29.30;95945.00;;;;5426994;26;20242;-71
2024/04/15 12:46:30;;;;;;;585.33;535.50;;;;;28.50;95942.00;;;;5425985;26;20267;-71
2024/04/15 12:49:21;;;;;;;575.97;525.80;;;;;28.80;95929.00;;;;5420632;26;20289;-72
2024/04/15 12:52:09;;;;;;;573.67;523.37;;;;;28.20;95916.00;;;;5416801;26;20235;-71
2024/04/15 12:55:00;;;;;;;561.70;512.30;;;;;28.30;95912.00;;;;5422227;26;20236;-72
2024/04/15 12:57:49;;;;;;;561.97;512.47;;;;;27.90;95906.00;;;;5423184;26;20229;-71
2024/04/15 13:00:40;;;;;;;562.50;514.00;;;;;28.20;95912.00;;;;5429052;26;20239;-71
2024/04/15 13:03:31;;;;;;;559.67;510.60;;;;;28.40;95914.00;;;;5430489;26;20224;-71
2024/04/15 13:06:22;;;;;;;557.77;508.03;;;;;28.60;95901.00;;;;5418723;26;20304;-71
2024/04/15 13:09:10;;;;;;;555.83;505.80;;;;;28.60;95879.00;;;;5419039;26;20397;-72
2024/04/15 13:12:01;;;;;;;543.57;494.77;;;;;27.90;95883.00;;;;5420961;26;20240;-71
2024/04/15 13:14:49;;;;;;;544.57;495.07;;;;;27.70;95880.00;;;;5420697;26;20236;-71
2024/04/15 13:17:40;;;;;;;544.57;495.03;;;;;27.90;95872.00;;;;5421921;26;20324;-71
2024/04/15 13:20:31;;;;;;;537.13;487.70;;;;;28.40;95871.00;;;;5422624;26;20240;-71
2024/04/15 13:23:22;;;;;;;541.03;491.73;;;;;28.50;95859.00;;;;5420998;26;20290;-71
2024/04/15 13:26:10;;;;;;;545.87;495.73;;;;;28.90;95844.00;;;;5428736;26;20616;-71
2024/04/15 13:29:02;;;;;;;550.90;501.30;;;;;28.80;95849.00;;;;5435177;26;20672;-71
2024/04/15 13:31:50;;;;;;;547.07;497.47;;;;;28.80;95841.00;;;;5414301;26;20319;-71
2024/04/15 13:34:46;;;;;;;539.40;490.27;;;;;28.50;95835.00;;;;5424072;26;20328;-71
2024/04/15 13:37:37;;;;;;;541.60;491.77;;;;;29.00;95823.00;;;;5422034;26;20312;-72
2024/04/15 13:40:28;;;;;;;546.37;496.67;;;;;28.90;95807.00;;;;5426775;26;20292;-72